sensor_id;sensor_type;location;lat;lon;timestamp;temperature;humidity
78490;DHT22;67776;52.012;4.736;2024-01-16T00:01:52;0.63;99.76
78490;DHT22;67776;52.012;4.736;2024-01-16T00:04:17;0.59;99.71
78490;DHT22;67776;52.012;4.736;2024-01-16T00:06:44;0.67;99.72
78490;DHT22;67776;52.012;4.736;2024-01-16T00:09:09;0.66;99.60
78490;DHT22;67776;52.012;4.736;2024-01-16T00:11:44;0.75;99.42
78490;DHT22;67776;52.012;4.736;2024-01-16T00:14:10;0.76;99.18
78490;DHT22;67776;52.012;4.736;2024-01-16T00:16:45;0.73;99.04
78490;DHT22;67776;52.012;4.736;2024-01-16T00:19:11;0.73;99.18
78490;DHT22;67776;52.012;4.736;2024-01-16T00:21:44;0.67;99.15
78490;DHT22;67776;52.012;4.736;2024-01-16T00:24:11;0.69;99.25
78490;DHT22;67776;52.012;4.736;2024-01-16T00:26:37;0.83;98.70
78490;DHT22;67776;52.012;4.736;2024-01-16T00:29:02;0.87;98.34
78490;DHT22;67776;52.012;4.736;2024-01-16T00:31:27;0.86;97.70
78490;DHT22;67776;52.012;4.736;2024-01-16T00:33:53;0.93;97.45
78490;DHT22;67776;52.012;4.736;2024-01-16T00:36:18;0.93;97.17
78490;DHT22;67776;52.012;4.736;2024-01-16T00:38:44;0.93;97.26
78490;DHT22;67776;52.012;4.736;2024-01-16T00:41:10;0.91;96.78
78490;DHT22;67776;52.012;4.736;2024-01-16T00:43:35;0.95;96.26
78490;DHT22;67776;52.012;4.736;2024-01-16T00:46:01;0.95;95.51
78490;DHT22;67776;52.012;4.736;2024-01-16T00:48:26;1.00;95.40
78490;DHT22;67776;52.012;4.736;2024-01-16T00:50:51;0.97;95.67
78490;DHT22;67776;52.012;4.736;2024-01-16T00:53:17;1.03;94.91
78490;DHT22;67776;52.012;4.736;2024-01-16T00:55:42;1.05;95.24
78490;DHT22;67776;52.012;4.736;2024-01-16T00:58:07;1.11;95.05
78490;DHT22;67776;52.012;4.736;2024-01-16T01:00:33;1.15;94.67
78490;DHT22;67776;52.012;4.736;2024-01-16T01:03:00;1.20;94.68
78490;DHT22;67776;52.012;4.736;2024-01-16T01:05:25;1.20;94.89
78490;DHT22;67776;52.012;4.736;2024-01-16T01:07:56;1.21;94.65
78490;DHT22;67776;52.012;4.736;2024-01-16T01:10:22;1.18;94.72
78490;DHT22;67776;52.012;4.736;2024-01-16T01:12:48;1.18;94.70
78490;DHT22;67776;52.012;4.736;2024-01-16T01:15:13;1.15;94.38
78490;DHT22;67776;52.012;4.736;2024-01-16T01:17:39;1.08;94.77
78490;DHT22;67776;52.012;4.736;2024-01-16T01:20:06;1.08;94.48
78490;DHT22;67776;52.012;4.736;2024-01-16T01:22:31;0.93;95.62
78490;DHT22;67776;52.012;4.736;2024-01-16T01:24:57;0.95;95.55
78490;DHT22;67776;52.012;4.736;2024-01-16T01:27:22;0.87;95.85
78490;DHT22;67776;52.012;4.736;2024-01-16T01:29:47;0.84;95.62
78490;DHT22;67776;52.012;4.736;2024-01-16T01:32:13;0.84;95.51
78490;DHT22;67776;52.012;4.736;2024-01-16T01:34:41;0.80;95.64
78490;DHT22;67776;52.012;4.736;2024-01-16T01:37:06;0.86;95.65
78490;DHT22;67776;52.012;4.736;2024-01-16T01:39:32;0.90;95.54
78490;DHT22;67776;52.012;4.736;2024-01-16T01:41:57;1.04;94.81
78490;DHT22;67776;52.012;4.736;2024-01-16T01:44:22;1.04;95.81
78490;DHT22;67776;52.012;4.736;2024-01-16T01:46:50;1.11;95.99
78490;DHT22;67776;52.012;4.736;2024-01-16T01:49:16;1.03;96.77
78490;DHT22;67776;52.012;4.736;2024-01-16T01:51:41;0.95;97.41
78490;DHT22;67776;52.012;4.736;2024-01-16T01:54:07;0.95;97.30
78490;DHT22;67776;52.012;4.736;2024-01-16T01:56:33;0.94;97.62
78490;DHT22;67776;52.012;4.736;2024-01-16T01:58:59;0.84;97.84
78490;DHT22;67776;52.012;4.736;2024-01-16T02:01:25;0.84;97.99
78490;DHT22;67776;52.012;4.736;2024-01-16T02:03:55;0.79;98.00
78490;DHT22;67776;52.012;4.736;2024-01-16T02:06:20;0.81;97.84
78490;DHT22;67776;52.012;4.736;2024-01-16T02:08:45;0.79;97.93
78490;DHT22;67776;52.012;4.736;2024-01-16T02:11:11;0.76;98.00
78490;DHT22;67776;52.012;4.736;2024-01-16T02:13:37;0.73;98.07
78490;DHT22;67776;52.012;4.736;2024-01-16T02:16:02;0.70;98.36
78490;DHT22;67776;52.012;4.736;2024-01-16T02:18:28;0.66;98.83
78490;DHT22;67776;52.012;4.736;2024-01-16T02:20:59;0.63;99.07
78490;DHT22;67776;52.012;4.736;2024-01-16T02:23:26;0.67;98.87
78490;DHT22;67776;52.012;4.736;2024-01-16T02:25:52;0.72;98.92
78490;DHT22;67776;52.012;4.736;2024-01-16T02:28:17;0.79;99.13
78490;DHT22;67776;52.012;4.736;2024-01-16T02:30:43;0.77;99.27
78490;DHT22;67776;52.012;4.736;2024-01-16T02:33:08;0.73;99.52
78490;DHT22;67776;52.012;4.736;2024-01-16T02:35:33;0.70;99.73
78490;DHT22;67776;52.012;4.736;2024-01-16T02:37:59;0.66;99.50
78490;DHT22;67776;52.012;4.736;2024-01-16T02:40:26;0.79;99.36
78490;DHT22;67776;52.012;4.736;2024-01-16T02:42:51;0.73;99.26
78490;DHT22;67776;52.012;4.736;2024-01-16T02:45:16;0.76;99.01
78490;DHT22;67776;52.012;4.736;2024-01-16T02:47:42;0.69;99.37
78490;DHT22;67776;52.012;4.736;2024-01-16T02:50:08;0.75;99.74
78490;DHT22;67776;52.012;4.736;2024-01-16T02:52:35;0.75;99.99
78490;DHT22;67776;52.012;4.736;2024-01-16T02:55:00;0.80;99.90
78490;DHT22;67776;52.012;4.736;2024-01-16T02:57:26;0.77;99.84
78490;DHT22;67776;52.012;4.736;2024-01-16T02:59:51;0.80;99.99
78490;DHT22;67776;52.012;4.736;2024-01-16T03:02:16;0.73;99.99
78490;DHT22;67776;52.012;4.736;2024-01-16T03:04:42;0.76;99.99
78490;DHT22;67776;52.012;4.736;2024-01-16T03:07:07;0.73;99.97
78490;DHT22;67776;52.012;4.736;2024-01-16T03:09:32;0.76;99.79
78490;DHT22;67776;52.012;4.736;2024-01-16T03:11:59;0.77;99.74
78490;DHT22;67776;52.012;4.736;2024-01-16T03:14:24;0.75;99.86
78490;DHT22;67776;52.012;4.736;2024-01-16T03:16:49;0.79;99.69
78490;DHT22;67776;52.012;4.736;2024-01-16T03:19:15;0.80;99.26
78490;DHT22;67776;52.012;4.736;2024-01-16T03:21:41;0.75;99.43
78490;DHT22;67776;52.012;4.736;2024-01-16T03:24:07;0.75;99.43
78490;DHT22;67776;52.012;4.736;2024-01-16T03:26:32;0.70;99.29
78490;DHT22;67776;52.012;4.736;2024-01-16T03:28:58;0.65;99.66
78490;DHT22;67776;52.012;4.736;2024-01-16T03:31:24;0.63;99.61
78490;DHT22;67776;52.012;4.736;2024-01-16T03:33:49;0.50;99.84
78490;DHT22;67776;52.012;4.736;2024-01-16T03:36:14;0.60;99.95
78490;DHT22;67776;52.012;4.736;2024-01-16T03:38:42;0.49;99.99
78490;DHT22;67776;52.012;4.736;2024-01-16T03:41:07;0.56;99.99
78490;DHT22;67776;52.012;4.736;2024-01-16T03:43:34;0.49;99.99
78490;DHT22;67776;52.012;4.736;2024-01-16T03:46:00;0.59;99.99
78490;DHT22;67776;52.012;4.736;2024-01-16T03:48:25;0.50;99.99
78490;DHT22;67776;52.012;4.736;2024-01-16T03:50:51;0.60;99.99
78490;DHT22;67776;52.012;4.736;2024-01-16T03:53:16;0.45;99.99
78490;DHT22;67776;52.012;4.736;2024-01-16T03:55:41;0.31;99.99
78490;DHT22;67776;52.012;4.736;2024-01-16T03:58:07;0.26;99.99
78490;DHT22;67776;52.012;4.736;2024-01-16T04:00:32;0.29;99.99
78490;DHT22;67776;52.012;4.736;2024-01-16T04:02:58;0.26;99.99
78490;DHT22;67776;52.012;4.736;2024-01-16T04:05:23;0.39;99.99
78490;DHT22;67776;52.012;4.736;2024-01-16T04:07:49;0.49;99.99
78490;DHT22;67776;52.012;4.736;2024-01-16T04:10:14;0.59;99.99
78490;DHT22;67776;52.012;4.736;2024-01-16T04:12:39;0.67;99.99
78490;DHT22;67776;52.012;4.736;2024-01-16T04:15:05;0.75;99.99
78490;DHT22;67776;52.012;4.736;2024-01-16T04:17:31;0.80;99.99
78490;DHT22;67776;52.012;4.736;2024-01-16T04:19:59;0.87;99.99
78490;DHT22;67776;52.012;4.736;2024-01-16T04:22:24;0.83;99.99
78490;DHT22;67776;52.012;4.736;2024-01-16T04:24:49;0.81;99.99
78490;DHT22;67776;52.012;4.736;2024-01-16T04:27:15;0.79;99.99
78490;DHT22;67776;52.012;4.736;2024-01-16T04:29:40;0.76;99.99
78490;DHT22;67776;52.012;4.736;2024-01-16T04:32:06;0.72;99.99
78490;DHT22;67776;52.012;4.736;2024-01-16T04:34:31;0.72;99.99
78490;DHT22;67776;52.012;4.736;2024-01-16T04:36:56;0.80;99.99
78490;DHT22;67776;52.012;4.736;2024-01-16T04:39:22;0.69;99.99
78490;DHT22;67776;52.012;4.736;2024-01-16T04:41:48;0.69;99.99
78490;DHT22;67776;52.012;4.736;2024-01-16T04:44:14;0.63;99.99
78490;DHT22;67776;52.012;4.736;2024-01-16T04:46:39;0.69;99.99
78490;DHT22;67776;52.012;4.736;2024-01-16T04:49:04;0.76;99.99
78490;DHT22;67776;52.012;4.736;2024-01-16T04:51:30;0.70;99.99
78490;DHT22;67776;52.012;4.736;2024-01-16T04:53:55;0.62;99.99
78490;DHT22;67776;52.012;4.736;2024-01-16T04:56:21;0.57;99.99
78490;DHT22;67776;52.012;4.736;2024-01-16T04:58:46;0.56;99.99
78490;DHT22;67776;52.012;4.736;2024-01-16T05:01:12;0.57;99.99
78490;DHT22;67776;52.012;4.736;2024-01-16T05:03:38;0.55;99.99
78490;DHT22;67776;52.012;4.736;2024-01-16T05:06:03;0.56;99.99
78490;DHT22;67776;52.012;4.736;2024-01-16T05:08:29;0.52;99.99
78490;DHT22;67776;52.012;4.736;2024-01-16T05:10:55;0.52;99.99
78490;DHT22;67776;52.012;4.736;2024-01-16T05:13:21;0.48;99.99
78490;DHT22;67776;52.012;4.736;2024-01-16T05:15:46;0.45;99.99
78490;DHT22;67776;52.012;4.736;2024-01-16T05:18:12;0.45;99.99
78490;DHT22;67776;52.012;4.736;2024-01-16T05:20:37;0.45;99.99
78490;DHT22;67776;52.012;4.736;2024-01-16T05:23:02;0.44;99.99
78490;DHT22;67776;52.012;4.736;2024-01-16T05:25:28;0.45;99.99
78490;DHT22;67776;52.012;4.736;2024-01-16T05:27:54;0.46;99.99
78490;DHT22;67776;52.012;4.736;2024-01-16T05:30:19;0.45;99.99
78490;DHT22;67776;52.012;4.736;2024-01-16T05:32:44;0.42;99.99
78490;DHT22;67776;52.012;4.736;2024-01-16T05:35:10;0.42;99.99
78490;DHT22;67776;52.012;4.736;2024-01-16T05:37:35;0.37;99.99
78490;DHT22;67776;52.012;4.736;2024-01-16T05:40:01;0.37;99.99
78490;DHT22;67776;52.012;4.736;2024-01-16T05:42:29;0.37;99.99
78490;DHT22;67776;52.012;4.736;2024-01-16T05:44:55;0.33;99.99
78490;DHT22;67776;52.012;4.736;2024-01-16T05:47:20;0.35;99.99
78490;DHT22;67776;52.012;4.736;2024-01-16T05:49:46;0.35;99.99
78490;DHT22;67776;52.012;4.736;2024-01-16T05:52:11;0.31;99.99
78490;DHT22;67776;52.012;4.736;2024-01-16T05:54:36;0.31;99.99
78490;DHT22;67776;52.012;4.736;2024-01-16T05:57:02;0.31;99.99
78490;DHT22;67776;52.012;4.736;2024-01-16T05:59:28;0.28;99.99
78490;DHT22;67776;52.012;4.736;2024-01-16T06:01:53;0.25;99.99
78490;DHT22;67776;52.012;4.736;2024-01-16T06:04:18;0.26;99.99
78490;DHT22;67776;52.012;4.736;2024-01-16T06:06:44;0.26;99.99
78490;DHT22;67776;52.012;4.736;2024-01-16T06:09:10;0.24;99.99
78490;DHT22;67776;52.012;4.736;2024-01-16T06:11:39;0.22;99.99
78490;DHT22;67776;52.012;4.736;2024-01-16T06:14:06;0.22;99.99
78490;DHT22;67776;52.012;4.736;2024-01-16T06:16:32;0.24;99.99
78490;DHT22;67776;52.012;4.736;2024-01-16T06:18:57;0.22;99.99
78490;DHT22;67776;52.012;4.736;2024-01-16T06:21:23;0.18;99.99
78490;DHT22;67776;52.012;4.736;2024-01-16T06:23:48;0.19;99.99
78490;DHT22;67776;52.012;4.736;2024-01-16T06:26:14;0.18;99.99
78490;DHT22;67776;52.012;4.736;2024-01-16T06:28:40;0.18;99.99
78490;DHT22;67776;52.012;4.736;2024-01-16T06:31:08;0.15;99.99
78490;DHT22;67776;52.012;4.736;2024-01-16T06:33:33;0.12;99.99
78490;DHT22;67776;52.012;4.736;2024-01-16T06:35:58;0.12;99.99
78490;DHT22;67776;52.012;4.736;2024-01-16T06:38:24;0.10;99.99
78490;DHT22;67776;52.012;4.736;2024-01-16T06:40:49;0.08;99.99
78490;DHT22;67776;52.012;4.736;2024-01-16T06:43:15;0.07;99.99
78490;DHT22;67776;52.012;4.736;2024-01-16T06:45:42;0.05;99.99
78490;DHT22;67776;52.012;4.736;2024-01-16T06:48:07;-0.03;99.99
78490;DHT22;67776;52.012;4.736;2024-01-16T06:50:33;-0.03;99.99
78490;DHT22;67776;52.012;4.736;2024-01-16T06:52:58;-0.02;99.99
78490;DHT22;67776;52.012;4.736;2024-01-16T06:55:23;-0.06;99.99
78490;DHT22;67776;52.012;4.736;2024-01-16T06:57:49;-0.09;99.99
78490;DHT22;67776;52.012;4.736;2024-01-16T07:00:15;-0.09;99.99
78490;DHT22;67776;52.012;4.736;2024-01-16T07:02:40;-0.07;99.99
78490;DHT22;67776;52.012;4.736;2024-01-16T07:05:09;-0.10;99.99
78490;DHT22;67776;52.012;4.736;2024-01-16T07:07:34;-0.11;99.99
78490;DHT22;67776;52.012;4.736;2024-01-16T07:09:59;-0.13;99.99
78490;DHT22;67776;52.012;4.736;2024-01-16T07:12:25;-0.16;99.99
78490;DHT22;67776;52.012;4.736;2024-01-16T07:14:50;-0.13;99.99
78490;DHT22;67776;52.012;4.736;2024-01-16T07:17:15;-0.13;99.99
78490;DHT22;67776;52.012;4.736;2024-01-16T07:19:41;-0.13;99.99
78490;DHT22;67776;52.012;4.736;2024-01-16T07:22:06;-0.11;99.99
78490;DHT22;67776;52.012;4.736;2024-01-16T07:24:31;-0.13;99.99
78490;DHT22;67776;52.012;4.736;2024-01-16T07:26:57;-0.16;99.99
78490;DHT22;67776;52.012;4.736;2024-01-16T07:29:22;-0.16;99.99
78490;DHT22;67776;52.012;4.736;2024-01-16T07:31:48;-0.13;99.99
78490;DHT22;67776;52.012;4.736;2024-01-16T07:34:13;-0.09;99.99
78490;DHT22;67776;52.012;4.736;2024-01-16T07:36:42;-0.07;99.99
78490;DHT22;67776;52.012;4.736;2024-01-16T07:39:07;-0.11;99.98
78490;DHT22;67776;52.012;4.736;2024-01-16T07:41:33;-0.06;99.99
78490;DHT22;67776;52.012;4.736;2024-01-16T07:43:59;-0.05;99.80
78490;DHT22;67776;52.012;4.736;2024-01-16T07:46:24;-0.03;99.69
78490;DHT22;67776;52.012;4.736;2024-01-16T07:48:50;0.00;99.67
78490;DHT22;67776;52.012;4.736;2024-01-16T07:51:16;0.04;99.63
78490;DHT22;67776;52.012;4.736;2024-01-16T07:53:41;0.04;99.41
78490;DHT22;67776;52.012;4.736;2024-01-16T07:56:06;0.08;99.34
78490;DHT22;67776;52.012;4.736;2024-01-16T07:58:32;0.00;99.41
78490;DHT22;67776;52.012;4.736;2024-01-16T08:00:57;0.03;99.25
78490;DHT22;67776;52.012;4.736;2024-01-16T08:03:22;0.04;99.20
78490;DHT22;67776;52.012;4.736;2024-01-16T08:05:48;0.04;98.70
78490;DHT22;67776;52.012;4.736;2024-01-16T08:08:13;0.04;98.27
78490;DHT22;67776;52.012;4.736;2024-01-16T08:10:41;0.10;98.27
78490;DHT22;67776;52.012;4.736;2024-01-16T08:13:09;0.11;97.99
78490;DHT22;67776;52.012;4.736;2024-01-16T08:15:36;0.07;98.03
78490;DHT22;67776;52.012;4.736;2024-01-16T08:18:02;0.11;97.92
78490;DHT22;67776;52.012;4.736;2024-01-16T08:20:27;0.08;98.05
78490;DHT22;67776;52.012;4.736;2024-01-16T08:22:53;0.10;97.41
78490;DHT22;67776;52.012;4.736;2024-01-16T08:25:18;0.11;98.23
78490;DHT22;67776;52.012;4.736;2024-01-16T08:27:44;0.14;97.77
78490;DHT22;67776;52.012;4.736;2024-01-16T08:30:09;0.14;96.80
78490;DHT22;67776;52.012;4.736;2024-01-16T08:32:36;0.17;97.57
78490;DHT22;67776;52.012;4.736;2024-01-16T08:35:02;0.15;97.28
78490;DHT22;67776;52.012;4.736;2024-01-16T08:37:27;0.17;97.19
78490;DHT22;67776;52.012;4.736;2024-01-16T08:39:53;0.26;97.21
78490;DHT22;67776;52.012;4.736;2024-01-16T08:42:19;0.26;97.59
78490;DHT22;67776;52.012;4.736;2024-01-16T08:44:47;0.33;96.66
78490;DHT22;67776;52.012;4.736;2024-01-16T08:47:12;0.31;96.97
78490;DHT22;67776;52.012;4.736;2024-01-16T08:49:37;0.35;96.41
78490;DHT22;67776;52.012;4.736;2024-01-16T08:52:03;0.39;96.54
78490;DHT22;67776;52.012;4.736;2024-01-16T08:54:29;0.46;95.94
78490;DHT22;67776;52.012;4.736;2024-01-16T08:56:55;0.53;95.73
78490;DHT22;67776;52.012;4.736;2024-01-16T08:59:20;0.56;96.50
78490;DHT22;67776;52.012;4.736;2024-01-16T09:01:46;0.53;96.19
78490;DHT22;67776;52.012;4.736;2024-01-16T09:04:11;0.59;96.04
78490;DHT22;67776;52.012;4.736;2024-01-16T09:06:37;0.59;96.34
78490;DHT22;67776;52.012;4.736;2024-01-16T09:09:04;0.52;97.02
78490;DHT22;67776;52.012;4.736;2024-01-16T09:11:30;0.59;96.08
78490;DHT22;67776;52.012;4.736;2024-01-16T09:13:57;0.65;96.33
78490;DHT22;67776;52.012;4.736;2024-01-16T09:16:22;0.66;95.83
78490;DHT22;67776;52.012;4.736;2024-01-16T09:18:47;0.76;94.43
78490;DHT22;67776;52.012;4.736;2024-01-16T09:21:13;0.66;94.65
78490;DHT22;67776;52.012;4.736;2024-01-16T09:23:39;0.70;94.92
78490;DHT22;67776;52.012;4.736;2024-01-16T09:26:04;0.67;95.40
78490;DHT22;67776;52.012;4.736;2024-01-16T09:28:30;0.79;94.26
78490;DHT22;67776;52.012;4.736;2024-01-16T09:30:55;0.84;94.12
78490;DHT22;67776;52.012;4.736;2024-01-16T09:33:23;0.94;93.79
78490;DHT22;67776;52.012;4.736;2024-01-16T09:35:48;0.87;94.50
78490;DHT22;67776;52.012;4.736;2024-01-16T09:38:14;0.86;94.60
78490;DHT22;67776;52.012;4.736;2024-01-16T09:40:39;0.83;94.26
78490;DHT22;67776;52.012;4.736;2024-01-16T09:43:05;0.76;94.54
78490;DHT22;67776;52.012;4.736;2024-01-16T09:45:36;0.84;93.25
78490;DHT22;67776;52.012;4.736;2024-01-16T09:48:02;0.81;94.10
78490;DHT22;67776;52.012;4.736;2024-01-16T09:50:29;0.88;93.65
78490;DHT22;67776;52.012;4.736;2024-01-16T09:52:55;1.04;93.77
78490;DHT22;67776;52.012;4.736;2024-01-16T09:55:20;1.08;92.88
78490;DHT22;67776;52.012;4.736;2024-01-16T09:57:49;1.11;92.82
78490;DHT22;67776;52.012;4.736;2024-01-16T10:00:16;1.05;93.25
78490;DHT22;67776;52.012;4.736;2024-01-16T10:02:42;1.09;93.59
78490;DHT22;67776;52.012;4.736;2024-01-16T10:05:11;1.27;91.49
78490;DHT22;67776;52.012;4.736;2024-01-16T10:07:41;1.27;92.28
78490;DHT22;67776;52.012;4.736;2024-01-16T10:10:09;1.38;91.11
78490;DHT22;67776;52.012;4.736;2024-01-16T10:12:38;1.50;90.53
78490;DHT22;67776;52.012;4.736;2024-01-16T10:15:08;1.66;91.53
78490;DHT22;67776;52.012;4.736;2024-01-16T10:17:43;2.70;87.45
78490;DHT22;67776;52.012;4.736;2024-01-16T10:20:09;3.21;85.86
78490;DHT22;67776;52.012;4.736;2024-01-16T10:22:39;3.91;83.66
78490;DHT22;67776;52.012;4.736;2024-01-16T10:25:10;4.18;81.74
78490;DHT22;67776;52.012;4.736;2024-01-16T10:27:38;4.79;78.43
78490;DHT22;67776;52.012;4.736;2024-01-16T10:30:04;5.22;77.53
78490;DHT22;67776;52.012;4.736;2024-01-16T10:32:31;5.36;77.96
78490;DHT22;67776;52.012;4.736;2024-01-16T10:35:13;4.98;78.26
78490;DHT22;67776;52.012;4.736;2024-01-16T10:37:46;5.24;76.91
78490;DHT22;67776;52.012;4.736;2024-01-16T10:40:22;5.57;75.61
78490;DHT22;67776;52.012;4.736;2024-01-16T10:42:58;5.26;77.62
78490;DHT22;67776;52.012;4.736;2024-01-16T10:45:23;5.57;76.97
78490;DHT22;67776;52.012;4.736;2024-01-16T10:48:15;4.90;77.55
78490;DHT22;67776;52.012;4.736;2024-01-16T10:50:41;4.99;77.93
78490;DHT22;67776;52.012;4.736;2024-01-16T10:53:07;5.42;76.56
78490;DHT22;67776;52.012;4.736;2024-01-16T10:56:05;5.29;75.03
78490;DHT22;67776;52.012;4.736;2024-01-16T10:58:34;4.54;76.89
78490;DHT22;67776;52.012;4.736;2024-01-16T11:01:02;4.91;76.88
78490;DHT22;67776;52.012;4.736;2024-01-16T11:06:11;5.21;77.62
78490;DHT22;67776;52.012;4.736;2024-01-16T11:08:37;5.45;77.23
78490;DHT22;67776;52.012;4.736;2024-01-16T11:11:04;5.91;74.06
78490;DHT22;67776;52.012;4.736;2024-01-16T11:13:32;6.49;74.07
78490;DHT22;67776;52.012;4.736;2024-01-16T11:15:59;6.19;74.46
78490;DHT22;67776;52.012;4.736;2024-01-16T11:18:26;6.18;76.20
78490;DHT22;67776;52.012;4.736;2024-01-16T11:20:53;5.93;73.67
78490;DHT22;67776;52.012;4.736;2024-01-16T11:23:19;6.17;69.48
78490;DHT22;67776;52.012;4.736;2024-01-16T11:25:45;6.58;68.92
78490;DHT22;67776;52.012;4.736;2024-01-16T11:28:12;6.67;66.94
78490;DHT22;67776;52.012;4.736;2024-01-16T11:30:42;6.07;66.76
78490;DHT22;67776;52.012;4.736;2024-01-16T11:33:46;6.63;60.69
78490;DHT22;67776;52.012;4.736;2024-01-16T11:36:51;6.94;62.16
78490;DHT22;67776;52.012;4.736;2024-01-16T11:39:23;6.39;62.61
78490;DHT22;67776;52.012;4.736;2024-01-16T11:41:53;6.42;65.76
78490;DHT22;67776;52.012;4.736;2024-01-16T11:47:04;5.93;61.97
78490;DHT22;67776;52.012;4.736;2024-01-16T11:49:30;6.73;61.01
78490;DHT22;67776;52.012;4.736;2024-01-16T11:51:57;5.56;63.95
78490;DHT22;67776;52.012;4.736;2024-01-16T11:54:23;5.89;62.42
78490;DHT22;67776;52.012;4.736;2024-01-16T11:57:12;5.89;63.56
78490;DHT22;67776;52.012;4.736;2024-01-16T12:02:32;4.76;66.34
78490;DHT22;67776;52.012;4.736;2024-01-16T12:04:59;4.97;65.61
78490;DHT22;67776;52.012;4.736;2024-01-16T12:07:28;4.94;66.78
78490;DHT22;67776;52.012;4.736;2024-01-16T12:09:59;5.04;66.13
78490;DHT22;67776;52.012;4.736;2024-01-16T12:12:25;5.05;67.95
78490;DHT22;67776;52.012;4.736;2024-01-16T12:14:51;4.90;65.58
78490;DHT22;67776;52.012;4.736;2024-01-16T12:17:20;5.22;65.73
78490;DHT22;67776;52.012;4.736;2024-01-16T12:19:46;4.97;64.32
78490;DHT22;67776;52.012;4.736;2024-01-16T12:22:14;5.11;66.08
78490;DHT22;67776;52.012;4.736;2024-01-16T12:24:41;5.22;65.00
78490;DHT22;67776;52.012;4.736;2024-01-16T12:27:07;4.88;66.64
78490;DHT22;67776;52.012;4.736;2024-01-16T12:29:33;5.04;65.55
78490;DHT22;67776;52.012;4.736;2024-01-16T12:32:08;4.97;66.47
78490;DHT22;67776;52.012;4.736;2024-01-16T12:34:35;5.54;63.28
78490;DHT22;67776;52.012;4.736;2024-01-16T12:37:08;5.56;64.40
78490;DHT22;67776;52.012;4.736;2024-01-16T12:39:34;5.07;64.38
78490;DHT22;67776;52.012;4.736;2024-01-16T12:42:01;5.21;62.55
78490;DHT22;67776;52.012;4.736;2024-01-16T12:44:29;4.87;65.18
78490;DHT22;67776;52.012;4.736;2024-01-16T12:46:56;4.87;65.43
78490;DHT22;67776;52.012;4.736;2024-01-16T12:49:24;4.56;66.80
78490;DHT22;67776;52.012;4.736;2024-01-16T12:51:50;4.08;66.70
78490;DHT22;67776;52.012;4.736;2024-01-16T12:54:17;3.80;68.22
78490;DHT22;67776;52.012;4.736;2024-01-16T12:56:44;3.46;72.63
78490;DHT22;67776;52.012;4.736;2024-01-16T12:59:13;3.49;70.49
78490;DHT22;67776;52.012;4.736;2024-01-16T13:01:41;3.52;71.67
78490;DHT22;67776;52.012;4.736;2024-01-16T13:04:11;3.74;70.19
78490;DHT22;67776;52.012;4.736;2024-01-16T13:06:37;3.94;69.31
78490;DHT22;67776;52.012;4.736;2024-01-16T13:09:10;3.99;68.11
78490;DHT22;67776;52.012;4.736;2024-01-16T13:11:49;3.97;68.70
78490;DHT22;67776;52.012;4.736;2024-01-16T13:14:15;4.25;69.23
78490;DHT22;67776;52.012;4.736;2024-01-16T13:16:42;4.32;69.02
78490;DHT22;67776;52.012;4.736;2024-01-16T13:19:07;4.19;69.09
78490;DHT22;67776;52.012;4.736;2024-01-16T13:21:36;4.08;68.63
78490;DHT22;67776;52.012;4.736;2024-01-16T13:24:03;4.15;68.69
78490;DHT22;67776;52.012;4.736;2024-01-16T13:26:29;4.05;66.83
78490;DHT22;67776;52.012;4.736;2024-01-16T13:28:55;4.35;66.85
78490;DHT22;67776;52.012;4.736;2024-01-16T13:31:20;4.64;67.23
78490;DHT22;67776;52.012;4.736;2024-01-16T13:33:47;5.01;64.95
78490;DHT22;67776;52.012;4.736;2024-01-16T13:36:12;5.32;64.50
78490;DHT22;67776;52.012;4.736;2024-01-16T13:38:38;5.01;65.04
78490;DHT22;67776;52.012;4.736;2024-01-16T13:41:03;4.71;67.00
78490;DHT22;67776;52.012;4.736;2024-01-16T13:43:29;4.79;65.72
78490;DHT22;67776;52.012;4.736;2024-01-16T13:45:54;4.84;65.40
78490;DHT22;67776;52.012;4.736;2024-01-16T13:48:20;5.18;63.74
78490;DHT22;67776;52.012;4.736;2024-01-16T13:50:46;5.83;63.12
78490;DHT22;67776;52.012;4.736;2024-01-16T13:53:11;5.84;62.08
78490;DHT22;67776;52.012;4.736;2024-01-16T13:55:39;5.77;63.11
78490;DHT22;67776;52.012;4.736;2024-01-16T13:58:06;5.60;63.06
78490;DHT22;67776;52.012;4.736;2024-01-16T14:00:31;5.53;64.68
78490;DHT22;67776;52.012;4.736;2024-01-16T14:02:57;4.67;64.63
78490;DHT22;67776;52.012;4.736;2024-01-16T14:05:22;5.86;64.66
78490;DHT22;67776;52.012;4.736;2024-01-16T14:07:51;6.58;61.31
78490;DHT22;67776;52.012;4.736;2024-01-16T14:10:21;5.59;65.18
78490;DHT22;67776;52.012;4.736;2024-01-16T14:12:49;5.24;65.27
78490;DHT22;67776;52.012;4.736;2024-01-16T14:15:19;4.87;67.90
78490;DHT22;67776;52.012;4.736;2024-01-16T14:17:47;5.36;66.10
78490;DHT22;67776;52.012;4.736;2024-01-16T14:20:14;4.94;65.12
78490;DHT22;67776;52.012;4.736;2024-01-16T14:22:40;5.59;64.91
78490;DHT22;67776;52.012;4.736;2024-01-16T14:25:08;5.78;64.53
78490;DHT22;67776;52.012;4.736;2024-01-16T14:27:41;5.24;64.27
78490;DHT22;67776;52.012;4.736;2024-01-16T14:30:14;5.56;64.20
78490;DHT22;67776;52.012;4.736;2024-01-16T14:32:40;5.67;64.26
78490;DHT22;67776;52.012;4.736;2024-01-16T14:35:07;4.52;67.98
78490;DHT22;67776;52.012;4.736;2024-01-16T14:37:34;4.49;70.20
78490;DHT22;67776;52.012;4.736;2024-01-16T14:39:59;4.64;71.57
78490;DHT22;67776;52.012;4.736;2024-01-16T14:42:41;4.26;71.56
78490;DHT22;67776;52.012;4.736;2024-01-16T14:45:08;4.36;69.97
78490;DHT22;67776;52.012;4.736;2024-01-16T14:47:37;4.46;70.38
78490;DHT22;67776;52.012;4.736;2024-01-16T14:50:03;4.50;70.93
78490;DHT22;67776;52.012;4.736;2024-01-16T14:52:30;4.35;70.04
78490;DHT22;67776;52.012;4.736;2024-01-16T14:55:01;4.05;71.32
78490;DHT22;67776;52.012;4.736;2024-01-16T14:57:26;3.53;76.53
78490;DHT22;67776;52.012;4.736;2024-01-16T14:59:53;3.50;75.45
78490;DHT22;67776;52.012;4.736;2024-01-16T15:02:18;3.56;73.75
78490;DHT22;67776;52.012;4.736;2024-01-16T15:04:46;3.32;74.85
78490;DHT22;67776;52.012;4.736;2024-01-16T15:07:11;3.28;74.80
78490;DHT22;67776;52.012;4.736;2024-01-16T15:09:37;3.24;75.14
78490;DHT22;67776;52.012;4.736;2024-01-16T15:12:06;3.46;73.43
78490;DHT22;67776;52.012;4.736;2024-01-16T15:14:35;3.43;73.38
78490;DHT22;67776;52.012;4.736;2024-01-16T15:17:01;3.44;73.11
78490;DHT22;67776;52.012;4.736;2024-01-16T15:19:30;3.28;75.00
78490;DHT22;67776;52.012;4.736;2024-01-16T15:21:55;3.18;75.63
78490;DHT22;67776;52.012;4.736;2024-01-16T15:24:21;3.09;76.06
78490;DHT22;67776;52.012;4.736;2024-01-16T15:26:54;3.14;75.66
78490;DHT22;67776;52.012;4.736;2024-01-16T15:29:21;3.05;76.38
78490;DHT22;67776;52.012;4.736;2024-01-16T15:31:47;2.94;78.02
78490;DHT22;67776;52.012;4.736;2024-01-16T15:34:12;2.87;79.41
78490;DHT22;67776;52.012;4.736;2024-01-16T15:36:37;2.67;81.18
78490;DHT22;67776;52.012;4.736;2024-01-16T15:39:03;2.60;82.18
78490;DHT22;67776;52.012;4.736;2024-01-16T15:41:29;2.42;82.63
78490;DHT22;67776;52.012;4.736;2024-01-16T15:43:54;2.33;83.00
78490;DHT22;67776;52.012;4.736;2024-01-16T15:46:20;2.31;83.54
78490;DHT22;67776;52.012;4.736;2024-01-16T15:48:45;2.26;83.32
78490;DHT22;67776;52.012;4.736;2024-01-16T15:51:11;2.20;84.59